Time;durP1;ratioP1;P1;durP2;ratioP2;P2;SDS_P1;SDS_P2;PMS_P1;PMS_P2;Temp;Humidity;BMP_temperature;BMP_pressure;BME280_temperature;BME280_humidity;BME280_pressure;Samples;Min_cycle;Max_cycle;Signal;HPM_P1;HPM_P2
2021/10/08 00:02:23;;;;;;;102.45;26.45;;;10.60;92.80;;;;;;5045562;28;20037;-77
2021/10/08 00:04:50;;;;;;;100.93;26.02;;;10.60;92.80;;;;;;5030193;28;20111;-77
2021/10/08 00:07:16;;;;;;;103.07;26.85;;;10.60;92.80;;;;;;5012189;28;20132;-77
2021/10/08 00:09:43;;;;;;;72.35;25.73;;;10.60;92.80;;;;;;5028608;28;20630;-77
2021/10/08 00:12:09;;;;;;;41.78;24.05;;;10.60;92.80;;;;;;5030096;28;20071;-77
2021/10/08 00:14:38;;;;;;;58.38;24.35;;;10.60;92.70;;;;;;5028785;28;20037;-77
2021/10/08 00:17:04;;;;;;;73.68;24.05;;;10.60;92.70;;;;;;5030115;28;20037;-77
2021/10/08 00:19:31;;;;;;;50.00;23.60;;;10.50;92.70;;;;;;5045259;28;20476;-77
2021/10/08 00:21:57;;;;;;;76.88;24.77;;;10.50;92.60;;;;;;5028475;28;20038;-77
2021/10/08 00:24:24;;;;;;;53.83;22.13;;;10.50;92.50;;;;;;5028617;28;20044;-77
2021/10/08 00:26:51;;;;;;;40.55;23.10;;;10.50;92.50;;;;;;5028347;28;20041;-77
2021/10/08 00:29:17;;;;;;;51.60;24.02;;;10.40;92.70;;;;;;5011696;28;20556;-77
2021/10/08 00:31:44;;;;;;;35.55;23.83;;;10.40;92.40;;;;;;5011960;28;20082;-77
2021/10/08 00:34:10;;;;;;;44.13;25.25;;;10.30;92.40;;;;;;5012027;28;20044;-77
2021/10/08 00:36:37;;;;;;;34.92;23.73;;;10.30;92.40;;;;;;5028269;28;20402;-77
2021/10/08 00:39:04;;;;;;;41.50;25.10;;;10.30;92.40;;;;;;5011715;28;20041;-77
2021/10/08 00:41:31;;;;;;;40.90;24.23;;;10.30;92.40;;;;;;5012003;28;20029;-77
2021/10/08 00:43:58;;;;;;;41.58;24.08;;;10.20;92.40;;;;;;5011858;28;20530;-77
2021/10/08 00:46:24;;;;;;;48.35;23.67;;;10.20;92.40;;;;;;5029455;28;20034;-77
2021/10/08 00:48:53;;;;;;;57.08;24.88;;;10.20;92.40;;;;;;5027979;28;20413;-77
2021/10/08 00:51:22;;;;;;;42.63;22.95;;;10.20;92.40;;;;;;5029727;28;20018;-77
2021/10/08 00:53:48;;;;;;;53.08;24.35;;;10.10;92.40;;;;;;5029571;28;20033;-77
2021/10/08 00:56:19;;;;;;;52.53;23.13;;;10.10;92.40;;;;;;5011627;28;20053;-77
2021/10/08 00:58:44;;;;;;;169.32;25.05;;;10.10;92.40;;;;;;5012150;28;20038;-77
2021/10/08 01:01:13;;;;;;;113.35;24.77;;;10.10;92.40;;;;;;5029462;28;20081;-77
2021/10/08 01:03:39;;;;;;;;;;;10.10;92.40;;;;;;5012030;28;20025;-74
2021/10/08 01:06:05;;;;;;;347.42;36.65;;;10.00;92.30;;;;;;5028451;28;19924;-74
2021/10/08 01:08:31;;;;;;;130.75;23.98;;;9.90;92.50;;;;;;5029733;28;20126;-74
2021/10/08 01:10:58;;;;;;;76.63;22.67;;;9.90;92.60;;;;;;5029671;28;20030;-74
2021/10/08 01:13:24;;;;;;;165.00;25.52;;;9.90;92.70;;;;;;5029620;28;20032;-74
2021/10/08 01:15:53;;;;;;;390.30;32.42;;;9.80;92.70;;;;;;5028461;28;20026;-74
2021/10/08 01:18:19;;;;;;;102.35;20.67;;;9.80;92.70;;;;;;5029721;28;20052;-73
2021/10/08 01:20:45;;;;;;;137.88;21.33;;;9.70;92.70;;;;;;5011805;28;20481;-74
2021/10/08 01:23:12;;;;;;;188.07;23.55;;;9.70;92.80;;;;;;5011932;28;20547;-74
2021/10/08 01:25:38;;;;;;;114.25;21.33;;;9.70;92.80;;;;;;4995322;28;20038;-74
2021/10/08 01:28:06;;;;;;;66.90;19.45;;;9.70;92.80;;;;;;5011662;28;20037;-74
2021/10/08 01:30:33;;;;;;;76.43;18.58;;;9.70;92.90;;;;;;5056692;28;20052;-74
2021/10/08 01:33:00;;;;;;;97.70;18.65;;;9.70;92.90;;;;;;5091255;28;20020;-74
2021/10/08 01:35:27;;;;;;;103.68;17.88;;;9.70;92.80;;;;;;5074125;28;20020;-74
2021/10/08 01:37:53;;;;;;;196.02;20.98;;;9.70;92.70;;;;;;5074345;28;20055;-74
2021/10/08 01:40:20;;;;;;;124.75;18.70;;;9.60;92.60;;;;;;5074169;28;20028;-74
2021/10/08 01:42:47;;;;;;;103.38;18.83;;;9.60;92.60;;;;;;5073910;28;20043;-74
2021/10/08 01:45:15;;;;;;;46.72;16.65;;;9.60;92.60;;;;;;5074000;28;20249;-74
2021/10/08 01:47:42;;;;;;;52.85;17.00;;;9.60;92.60;;;;;;5090878;28;20059;-74
2021/10/08 01:50:09;;;;;;;68.90;17.73;;;9.50;92.60;;;;;;5090893;28;20054;-74
2021/10/08 01:52:36;;;;;;;72.45;18.65;;;9.50;92.60;;;;;;5091035;28;20028;-73
2021/10/08 01:55:03;;;;;;;84.93;18.25;;;9.40;92.50;;;;;;5074090;28;20415;-74
2021/10/08 01:57:29;;;;;;;57.28;18.50;;;9.40;92.60;;;;;;5074181;28;20028;-74
2021/10/08 01:59:56;;;;;;;82.22;19.20;;;9.40;92.60;;;;;;5090592;28;20123;-74
2021/10/08 02:02:22;;;;;;;86.43;18.83;;;9.40;92.60;;;;;;5074026;28;20034;-74
2021/10/08 02:04:48;;;;;;;62.15;17.85;;;9.40;92.60;;;;;;5074046;28;20123;-74
2021/10/08 02:07:15;;;;;;;59.95;17.40;;;9.40;92.60;;;;;;5090749;28;20513;-74
2021/10/08 02:09:42;;;;;;;148.02;21.23;;;9.40;92.70;;;;;;5094392;28;20032;-74
2021/10/08 02:12:12;;;;;;;164.38;21.60;;;9.40;92.60;;;;;;5078002;28;20028;-74
2021/10/08 02:14:38;;;;;;;96.22;16.45;;;9.30;92.60;;;;;;5094708;28;20084;-74
2021/10/08 02:17:05;;;;;;;106.15;17.63;;;9.30;92.60;;;;;;5094595;28;20106;-74
2021/10/08 02:19:31;;;;;;;59.13;15.98;;;9.30;92.60;;;;;;5094903;28;20032;-74
2021/10/08 02:21:58;;;;;;;58.42;15.77;;;9.30;92.60;;;;;;5111946;28;20031;-74
2021/10/08 02:24:24;;;;;;;118.03;20.13;;;9.20;92.60;;;;;;5094816;28;20063;-74
2021/10/08 02:26:51;;;;;;;71.88;16.63;;;9.20;92.60;;;;;;5111650;27;20541;-74
2021/10/08 02:29:17;;;;;;;66.95;16.60;;;9.20;92.60;;;;;;5073150;28;20032;-74
2021/10/08 02:31:44;;;;;;;28.08;14.93;;;9.10;92.60;;;;;;5014261;28;20057;-74
2021/10/08 02:34:10;;;;;;;49.85;15.90;;;9.10;92.60;;;;;;5030835;28;20041;-74
2021/10/08 02:36:37;;;;;;;33.38;15.57;;;9.10;92.60;;;;;;5014224;28;20066;-74
2021/10/08 02:39:03;;;;;;;64.93;16.33;;;9.10;92.60;;;;;;5031044;28;20037;-74
2021/10/08 02:41:29;;;;;;;38.80;16.58;;;9.10;92.50;;;;;;5030846;28;20025;-74
2021/10/08 02:43:55;;;;;;;91.65;18.85;;;9.00;92.60;;;;;;5047304;28;20034;-74
2021/10/08 02:46:21;;;;;;;58.22;16.75;;;9.00;92.70;;;;;;5031722;28;20078;-74
2021/10/08 02:48:47;;;;;;;49.00;15.93;;;9.00;92.70;;;;;;5031981;28;20032;-74
2021/10/08 02:51:12;;;;;;;74.72;16.30;;;9.00;92.70;;;;;;5047199;28;20066;-74
2021/10/08 02:53:38;;;;;;;77.95;17.58;;;9.00;92.70;;;;;;5031867;28;20032;-74
2021/10/08 02:56:04;;;;;;;55.13;14.57;;;9.00;92.60;;;;;;5046688;28;20036;-74
2021/10/08 02:58:31;;;;;;;47.20;15.60;;;8.90;92.60;;;;;;5031801;28;20026;-74
2021/10/08 03:00:56;;;;;;;69.70;16.15;;;9.00;92.70;;;;;;5047286;28;20102;-74
2021/10/08 03:03:22;;;;;;;42.60;14.60;;;8.90;92.60;;;;;;5031574;28;20482;-74
2021/10/08 03:05:48;;;;;;;47.92;14.80;;;8.90;92.60;;;;;;5013450;28;20482;-74
2021/10/08 03:08:14;;;;;;;118.45;17.95;;;8.90;92.60;;;;;;5030971;28;20053;-74
2021/10/08 03:10:40;;;;;;;64.45;15.20;;;8.80;92.50;;;;;;5030464;28;20029;-75
2021/10/08 03:13:07;;;;;;;28.65;14.32;;;8.80;92.50;;;;;;5030501;28;20031;-73
2021/10/08 03:15:33;;;;;;;27.15;13.07;;;8.80;92.50;;;;;;5045412;28;20086;-74
2021/10/08 03:18:02;;;;;;;31.63;14.00;;;8.80;92.50;;;;;;5012826;28;20025;-74
2021/10/08 03:20:28;;;;;;;73.57;15.93;;;8.80;92.40;;;;;;5029498;28;20033;-73
2021/10/08 03:22:55;;;;;;;74.70;14.77;;;8.80;92.40;;;;;;5013042;28;20117;-73
2021/10/08 03:25:21;;;;;;;38.65;13.27;;;8.70;92.40;;;;;;5029788;28;20065;-73
2021/10/08 03:27:48;;;;;;;69.20;14.55;;;8.70;92.50;;;;;;5030091;28;20022;-74
2021/10/08 03:30:15;;;;;;;93.55;18.33;;;8.70;92.40;;;;;;5064486;28;20059;-74
2021/10/08 03:32:42;;;;;;;47.30;14.75;;;8.70;92.40;;;;;;5093247;28;20381;-74
2021/10/08 03:35:10;;;;;;;77.07;14.45;;;8.60;92.40;;;;;;5076323;28;20028;-74
2021/10/08 03:37:44;;;;;;;99.05;18.33;;;8.60;92.50;;;;;;5093198;28;20059;-74
2021/10/08 03:40:15;;;;;;;66.20;14.40;;;8.50;92.50;;;;;;5077077;28;20036;-74
2021/10/08 03:42:41;;;;;;;47.35;13.70;;;8.50;92.50;;;;;;5094335;28;20035;-74
2021/10/08 03:45:14;;;;;;;33.03;14.35;;;8.60;92.50;;;;;;5093108;28;20031;-74
2021/10/08 03:50:25;;;;;;;55.40;13.45;;;8.50;92.50;;;;;;5094228;28;20031;-74
2021/10/08 03:52:50;;;;;;;50.15;13.43;;;8.50;92.40;;;;;;5094042;28;20020;-74
2021/10/08 03:55:16;;;;;;;39.17;13.43;;;8.50;92.50;;;;;;5093440;28;20024;-74
2021/10/08 03:57:42;;;;;;;75.65;13.73;;;8.40;92.40;;;;;;5093212;28;20020;-74
2021/10/08 04:00:09;;;;;;;55.92;13.63;;;8.40;92.50;;;;;;5092873;28;20511;-74
2021/10/08 04:02:34;;;;;;;48.65;13.27;;;8.40;92.60;;;;;;5092689;28;20034;-74
2021/10/08 04:05:00;;;;;;;37.20;13.10;;;8.30;92.50;;;;;;5092637;28;20122;-73
2021/10/08 04:07:25;;;;;;;38.17;11.95;;;8.40;92.60;;;;;;5092601;28;20036;-74
2021/10/08 04:09:51;;;;;;;58.28;14.48;;;8.30;92.60;;;;;;5092710;28;20035;-74
2021/10/08 04:12:17;;;;;;;21.50;12.43;;;8.30;92.60;;;;;;5075815;28;20031;-74
2021/10/08 04:14:43;;;;;;;28.70;11.93;;;8.30;92.60;;;;;;5092490;28;20032;-74
2021/10/08 04:17:09;;;;;;;21.05;12.20;;;8.30;92.60;;;;;;5075625;28;20092;-74
2021/10/08 04:19:36;;;;;;;30.40;12.43;;;8.30;92.50;;;;;;5074967;28;20032;-74
2021/10/08 04:22:02;;;;;;;25.95;12.70;;;8.30;92.40;;;;;;5074917;28;20032;-74
2021/10/08 04:24:29;;;;;;;24.23;13.32;;;8.30;92.30;;;;;;5091063;28;20028;-74
2021/10/08 04:26:55;;;;;;;40.83;12.70;;;8.20;92.30;;;;;;5091293;28;20074;-74
2021/10/08 04:29:22;;;;;;;24.42;12.77;;;8.20;92.30;;;;;;5085677;28;20056;-74
2021/10/08 04:31:48;;;;;;;30.83;12.38;;;8.20;92.30;;;;;;5028685;28;20075;-74
2021/10/08 04:34:14;;;;;;;24.70;11.85;;;8.20;92.30;;;;;;5012688;28;20379;-74
2021/10/08 04:36:41;;;;;;;15.13;12.18;;;8.10;92.30;;;;;;5012468;28;20034;-74
2021/10/08 04:39:07;;;;;;;23.65;12.18;;;8.10;92.30;;;;;;5012493;28;20070;-74
2021/10/08 04:41:34;;;;;;;29.70;12.50;;;8.10;92.40;;;;;;5030201;28;20033;-74
2021/10/08 04:44:00;;;;;;;29.13;12.43;;;8.10;92.30;;;;;;5012636;28;20021;-74
2021/10/08 04:46:25;;;;;;;16.45;10.90;;;8.10;92.30;;;;;;5045115;28;20085;-74
2021/10/08 04:48:51;;;;;;;34.13;11.98;;;8.10;92.30;;;;;;5029090;28;20075;-74
2021/10/08 04:51:17;;;;;;;38.65;14.90;;;8.00;92.30;;;;;;5045665;28;20470;-74
2021/10/08 04:53:42;;;;;;;55.83;15.48;;;8.00;92.20;;;;;;5029023;28;20037;-74
2021/10/08 04:56:08;;;;;;;15.13;12.48;;;7.90;92.20;;;;;;5029657;28;20097;-74
2021/10/08 04:58:34;;;;;;;21.58;11.82;;;7.90;92.40;;;;;;5029804;28;20034;-74
2021/10/08 05:00:59;;;;;;;15.75;13.13;;;7.90;92.50;;;;;;5045547;28;20139;-74
2021/10/08 05:03:25;;;;;;;21.73;13.48;;;7.90;92.50;;;;;;5030020;28;20041;-74
2021/10/08 05:05:52;;;;;;;20.80;14.27;;;8.00;92.50;;;;;;5011877;28;20025;-74
2021/10/08 05:08:18;;;;;;;28.05;14.70;;;8.00;92.40;;;;;;5012208;28;20033;-74
2021/10/08 05:10:44;;;;;;;40.78;15.23;;;8.00;92.40;;;;;;5029764;28;20021;-74
2021/10/08 05:13:10;;;;;;;33.38;14.55;;;8.00;92.30;;;;;;5045204;28;20030;-74
2021/10/08 05:15:36;;;;;;;52.58;15.15;;;7.90;92.20;;;;;;5045392;28;20029;-74
2021/10/08 05:18:03;;;;;;;38.85;13.43;;;7.90;92.20;;;;;;5028448;28;20021;-73
2021/10/08 05:20:30;;;;;;;60.47;15.93;;;7.90;92.30;;;;;;5012200;28;20032;-74
2021/10/08 05:22:56;;;;;;;25.35;12.57;;;7.90;92.30;;;;;;5011595;28;20397;-74
2021/10/08 05:25:23;;;;;;;35.33;11.93;;;7.90;92.30;;;;;;5011591;28;20481;-74
2021/10/08 05:27:49;;;;;;;27.33;12.63;;;7.80;92.30;;;;;;5011730;28;20470;-73
2021/10/08 05:30:16;;;;;;;24.42;12.23;;;7.80;92.40;;;;;;5027770;28;20532;-74
2021/10/08 05:32:43;;;;;;;46.13;14.50;;;7.90;92.40;;;;;;5011730;28;20026;-74
2021/10/08 05:35:11;;;;;;;34.15;13.85;;;7.80;92.40;;;;;;5044776;28;20100;-74
2021/10/08 05:37:38;;;;;;;30.70;11.60;;;7.80;92.70;;;;;;5030036;28;20036;-74
2021/10/08 05:40:06;;;;;;;57.45;12.98;;;7.80;92.40;;;;;;5011616;28;20037;-74
2021/10/08 05:42:32;;;;;;;74.13;14.32;;;7.80;92.50;;;;;;5010458;28;20052;-74
2021/10/08 05:45:01;;;;;;;111.38;14.32;;;7.80;92.50;;;;;;5011208;28;20569;-74
2021/10/08 05:47:27;;;;;;;127.40;17.08;;;7.80;92.60;;;;;;5028881;28;20029;-74
2021/10/08 05:49:54;;;;;;;72.72;13.43;;;7.80;92.60;;;;;;5011080;28;20041;-74
2021/10/08 05:52:20;;;;;;;46.03;12.23;;;7.80;92.60;;;;;;5029211;28;20049;-74
2021/10/08 05:54:47;;;;;;;168.18;18.08;;;7.80;92.60;;;;;;5011112;28;20025;-74
2021/10/08 05:57:13;;;;;;;102.82;15.95;;;7.80;92.60;;;;;;5011023;28;20037;-74
2021/10/08 05:59:41;;;;;;;122.60;15.15;;;7.80;92.60;;;;;;5027143;28;20040;-74
2021/10/08 06:02:07;;;;;;;43.53;12.32;;;7.80;92.70;;;;;;5026644;28;20033;-74
2021/10/08 06:04:34;;;;;;;55.95;13.90;;;7.80;92.70;;;;;;5009835;28;20037;-73
2021/10/08 06:07:01;;;;;;;66.20;12.88;;;7.80;92.80;;;;;;5009399;28;20501;-73
2021/10/08 06:09:27;;;;;;;47.50;12.88;;;7.80;92.80;;;;;;5026022;28;20041;-73
2021/10/08 06:11:54;;;;;;;62.28;14.07;;;7.80;92.80;;;;;;5025757;28;20117;-73
2021/10/08 06:14:20;;;;;;;24.52;12.18;;;7.80;92.70;;;;;;5026299;28;20032;-73
2021/10/08 06:16:47;;;;;;;31.33;11.68;;;7.80;92.70;;;;;;5026786;28;20037;-73
2021/10/08 06:19:13;;;;;;;21.02;12.77;;;7.80;92.70;;;;;;5009324;28;20070;-73
2021/10/08 06:21:40;;;;;;;38.30;22.00;;;7.80;92.70;;;;;;5009319;28;20078;-73
2021/10/08 06:24:06;;;;;;;26.10;17.20;;;7.80;92.70;;;;;;5025604;28;20026;-73
2021/10/08 06:26:32;;;;;;;28.20;21.25;;;7.80;92.70;;;;;;5025796;28;20624;-74
2021/10/08 06:28:58;;;;;;;43.08;31.33;;;7.80;92.70;;;;;;5025734;28;20045;-73
2021/10/08 06:31:24;;;;;;;50.97;36.72;;;7.90;92.80;;;;;;5083613;28;20058;-74
2021/10/08 06:33:49;;;;;;;45.83;30.50;;;7.90;92.70;;;;;;5090122;28;20024;-73
2021/10/08 06:36:15;;;;;;;44.70;30.27;;;7.90;92.60;;;;;;5071917;28;20032;-74
2021/10/08 06:38:40;;;;;;;26.70;17.15;;;7.90;92.60;;;;;;5090136;28;20465;-73
2021/10/08 06:41:06;;;;;;;27.90;13.73;;;7.90;92.60;;;;;;5088453;28;20040;-74
2021/10/08 06:43:32;;;;;;;23.45;13.23;;;8.00;92.70;;;;;;5088644;28;20051;-73
2021/10/08 06:45:58;;;;;;;24.13;14.50;;;8.00;92.70;;;;;;5089961;28;20039;-74
2021/10/08 06:48:23;;;;;;;23.60;12.98;;;8.10;92.70;;;;;;5089841;28;20078;-74
2021/10/08 06:50:49;;;;;;;19.83;12.32;;;8.10;92.70;;;;;;5089989;28;20028;-74
2021/10/08 06:53:15;;;;;;;19.35;12.25;;;8.20;92.70;;;;;;5089386;28;20130;-74
2021/10/08 06:55:42;;;;;;;27.48;13.43;;;8.30;92.70;;;;;;5094200;28;20040;-75
2021/10/08 06:58:09;;;;;;;17.98;12.07;;;8.30;92.70;;;;;;5094704;28;20032;-76
2021/10/08 07:00:35;;;;;;;23.35;13.23;;;8.40;92.70;;;;;;5077934;28;20123;-76
2021/10/08 07:03:02;;;;;;;23.00;12.75;;;8.50;92.60;;;;;;5111679;28;20052;-76
2021/10/08 07:05:28;;;;;;;32.00;14.95;;;8.60;92.60;;;;;;5094431;28;20032;-76
2021/10/08 07:07:55;;;;;;;22.77;13.93;;;8.70;92.50;;;;;;5077982;28;20096;-76
2021/10/08 07:10:21;;;;;;;40.85;14.73;;;8.70;92.40;;;;;;5077958;28;20024;-76
2021/10/08 07:12:48;;;;;;;38.13;14.48;;;8.80;92.40;;;;;;5094818;28;20526;-76
2021/10/08 07:15:18;;;;;;;47.15;14.82;;;8.80;92.30;;;;;;5077934;28;20028;-76
2021/10/08 07:17:50;;;;;;;27.45;13.15;;;8.90;92.30;;;;;;5078157;28;20035;-76
2021/10/08 07:20:19;;;;;;;29.38;14.45;;;8.90;92.20;;;;;;5095949;28;20052;-76
2021/10/08 07:22:45;;;;;;;25.80;14.60;;;8.90;92.30;;;;;;5095228;28;20020;-77
2021/10/08 07:25:10;;;;;;;30.00;13.75;;;9.00;92.40;;;;;;5093978;28;20438;-77
2021/10/08 07:27:37;;;;;;;21.52;12.95;;;9.10;92.40;;;;;;5094355;28;20035;-77
2021/10/08 07:30:04;;;;;;;20.50;12.95;;;9.30;92.30;;;;;;5092787;28;20080;-76
2021/10/08 07:32:31;;;;;;;22.75;13.45;;;9.40;92.10;;;;;;5094348;28;20056;-76
2021/10/08 07:34:57;;;;;;;24.00;14.18;;;9.60;92.10;;;;;;5092975;28;20020;-77
2021/10/08 07:37:23;;;;;;;22.63;13.30;;;9.70;92.10;;;;;;5092661;28;20384;-76
2021/10/08 07:39:49;;;;;;;19.35;11.77;;;9.80;91.90;;;;;;5094037;28;20052;-77
2021/10/08 07:42:15;;;;;;;19.38;12.60;;;9.90;91.90;;;;;;5093186;28;20103;-77
2021/10/08 07:44:42;;;;;;;19.40;12.65;;;10.00;91.80;;;;;;5075699;28;20024;-76
2021/10/08 07:47:09;;;;;;;18.98;14.20;;;10.10;91.80;;;;;;5092725;28;20028;-76
2021/10/08 07:49:36;;;;;;;22.48;14.55;;;10.20;91.90;;;;;;5075579;28;20038;-77
2021/10/08 07:52:03;;;;;;;18.88;12.95;;;10.30;91.90;;;;;;5092640;28;20062;-77
2021/10/08 07:54:29;;;;;;;19.10;12.30;;;10.50;91.90;;;;;;5092603;28;20020;-76
2021/10/08 07:56:56;;;;;;;21.65;13.98;;;10.70;91.70;;;;;;5092259;28;20035;-76
2021/10/08 07:59:22;;;;;;;19.35;13.43;;;10.80;91.60;;;;;;5109534;27;20043;-77
2021/10/08 08:01:49;;;;;;;19.10;13.70;;;10.90;91.60;;;;;;5075806;28;20086;-77
2021/10/08 08:04:15;;;;;;;20.30;13.50;;;10.90;91.50;;;;;;5109623;27;20043;-77
2021/10/08 08:06:42;;;;;;;16.65;12.68;;;11.00;91.50;;;;;;5074575;28;20032;-77
2021/10/08 08:09:08;;;;;;;20.50;13.23;;;11.10;91.60;;;;;;5092050;28;20483;-77
2021/10/08 08:11:35;;;;;;;18.80;12.77;;;11.20;91.50;;;;;;5075177;28;20058;-77
2021/10/08 08:14:01;;;;;;;20.45;14.55;;;11.30;91.50;;;;;;5075375;28;20117;-77
2021/10/08 08:16:28;;;;;;;19.95;14.25;;;11.40;91.40;;;;;;5093078;28;20047;-76
2021/10/08 08:18:54;;;;;;;18.52;14.10;;;11.40;91.40;;;;;;5093568;28;20035;-76
2021/10/08 08:21:21;;;;;;;17.10;13.10;;;11.50;91.50;;;;;;5093575;28;20180;-76
2021/10/08 08:23:46;;;;;;;21.30;13.93;;;11.70;91.40;;;;;;5093440;28;20054;-76
2021/10/08 08:26:12;;;;;;;20.45;12.82;;;11.80;91.40;;;;;;5094579;28;20384;-76
2021/10/08 08:28:37;;;;;;;19.10;13.60;;;11.90;91.30;;;;;;5092927;28;20024;-76
2021/10/08 08:31:03;;;;;;;23.40;14.32;;;11.90;91.30;;;;;;5075840;28;20685;-76
2021/10/08 08:33:29;;;;;;;20.55;13.63;;;12.00;91.30;;;;;;5092840;28;20020;-76
2021/10/08 08:35:55;;;;;;;18.60;12.40;;;12.20;91.30;;;;;;5093433;28;20415;-76
2021/10/08 08:38:21;;;;;;;18.50;12.10;;;12.20;91.20;;;;;;5094687;28;20030;-76
2021/10/08 08:40:46;;;;;;;19.35;13.30;;;12.30;91.20;;;;;;5093378;28;20484;-76
2021/10/08 08:43:13;;;;;;;18.10;13.73;;;12.40;91.10;;;;;;5094491;28;20026;-76
2021/10/08 08:45:39;;;;;;;21.73;13.30;;;12.50;90.90;;;;;;5094541;28;20054;-76
2021/10/08 08:48:10;;;;;;;20.42;12.85;;;12.60;91.00;;;;;;5094477;28;20040;-76
2021/10/08 08:50:44;;;;;;;16.80;12.93;;;12.70;90.90;;;;;;5093067;28;20124;-76
2021/10/08 08:53:10;;;;;;;22.20;13.65;;;12.90;90.90;;;;;;5094140;28;20047;-76
2021/10/08 08:55:36;;;;;;;17.60;14.02;;;13.00;90.80;;;;;;5093786;28;20028;-76
2021/10/08 08:58:01;;;;;;;18.42;13.00;;;13.00;90.50;;;;;;5093940;28;20035;-76
2021/10/08 09:00:28;;;;;;;18.25;13.05;;;13.10;90.60;;;;;;5092593;28;20057;-76
2021/10/08 09:03:04;;;;;;;18.30;14.02;;;13.20;90.60;;;;;;5093908;28;20047;-76
2021/10/08 09:05:34;;;;;;;19.10;13.32;;;13.20;90.50;;;;;;5092598;28;20050;-76
2021/10/08 09:08:05;;;;;;;20.63;13.75;;;13.30;90.50;;;;;;5092361;28;20032;-76
2021/10/08 09:10:33;;;;;;;16.77;12.40;;;13.30;90.40;;;;;;5093473;28;20028;-76
2021/10/08 09:12:59;;;;;;;19.85;13.25;;;13.40;90.40;;;;;;5093196;28;20024;-76
2021/10/08 09:15:27;;;;;;;15.13;11.93;;;13.50;90.30;;;;;;5091968;28;20031;-76
2021/10/08 09:18:10;;;;;;;17.98;12.57;;;13.60;90.20;;;;;;5093028;28;20054;-76
2021/10/08 09:20:37;;;;;;;20.30;13.30;;;13.70;90.20;;;;;;5093329;28;20020;-76
2021/10/08 09:23:05;;;;;;;16.50;11.52;;;13.80;90.20;;;;;;5092493;28;20103;-76
2021/10/08 09:25:36;;;;;;;18.80;13.07;;;13.90;90.20;;;;;;5092302;28;20043;-76
2021/10/08 09:28:02;;;;;;;14.45;11.45;;;14.00;90.10;;;;;;5093201;28;20113;-76
2021/10/08 09:30:46;;;;;;;17.27;12.93;;;14.20;90.10;;;;;;5057901;28;20087;-77
2021/10/08 09:33:22;;;;;;;18.38;12.95;;;14.30;90.00;;;;;;5010389;28;20127;-77
2021/10/08 09:35:54;;;;;;;19.73;13.38;;;14.40;89.70;;;;;;5027687;28;20033;-77
2021/10/08 09:38:20;;;;;;;20.75;14.23;;;14.40;89.20;;;;;;5012311;28;20109;-77
2021/10/08 09:40:51;;;;;;;22.10;14.43;;;14.40;89.20;;;;;;5030067;28;20112;-77
2021/10/08 09:43:23;;;;;;;26.00;14.77;;;14.50;89.40;;;;;;5012589;28;20033;-77
2021/10/08 09:46:19;;;;;;;23.55;14.35;;;14.50;89.20;;;;;;5030383;28;20058;-77
2021/10/08 09:48:45;;;;;;;19.45;13.82;;;14.60;89.50;;;;;;5030270;28;20061;-77
2021/10/08 09:51:13;;;;;;;25.10;14.98;;;14.60;89.10;;;;;;5045633;28;20751;-77
2021/10/08 09:53:48;;;;;;;25.58;14.63;;;14.70;88.80;;;;;;5030416;28;20021;-77
2021/10/08 09:56:39;;;;;;;25.20;14.98;;;14.80;88.10;;;;;;5045398;27;20056;-77
2021/10/08 09:59:13;;;;;;;26.85;14.82;;;14.90;88.00;;;;;;5011854;28;20035;-77
2021/10/08 10:01:41;;;;;;;23.52;14.70;;;14.90;88.00;;;;;;5029551;28;20029;-77
2021/10/08 10:04:09;;;;;;;33.15;15.82;;;15.00;88.10;;;;;;5028678;28;20470;-77
2021/10/08 10:06:37;;;;;;;26.55;14.70;;;15.10;87.00;;;;;;5010581;28;20061;-77
2021/10/08 10:09:04;;;;;;;24.92;14.35;;;15.20;87.20;;;;;;5026306;28;20095;-77
2021/10/08 10:11:30;;;;;;;26.20;14.23;;;15.30;87.40;;;;;;5043724;28;20388;-77
2021/10/08 10:14:00;;;;;;;23.92;13.88;;;15.40;87.50;;;;;;5028184;28;20493;-77
2021/10/08 10:16:28;;;;;;;24.40;13.90;;;15.50;86.20;;;;;;5044339;28;20033;-77
2021/10/08 10:18:56;;;;;;;24.77;14.40;;;15.60;86.00;;;;;;5028818;28;20029;-77
2021/10/08 10:21:28;;;;;;;21.45;14.65;;;15.70;85.90;;;;;;5028492;28;20076;-77
2021/10/08 10:24:00;;;;;;;23.88;14.05;;;15.80;85.10;;;;;;5011308;28;20060;-77
2021/10/08 10:26:28;;;;;;;26.48;15.45;;;15.80;85.50;;;;;;5029434;28;20381;-77
2021/10/08 10:28:55;;;;;;;25.88;15.32;;;15.90;85.70;;;;;;5030019;28;20034;-77
2021/10/08 10:31:22;;;;;;;23.10;14.65;;;16.00;85.10;;;;;;5033176;28;20118;-77
2021/10/08 10:33:55;;;;;;;22.70;13.90;;;16.10;84.10;;;;;;5015467;28;20040;-77
2021/10/08 10:36:24;;;;;;;23.92;13.90;;;16.10;83.90;;;;;;5015386;28;20163;-77
2021/10/08 10:38:50;;;;;;;23.33;14.23;;;16.20;83.90;;;;;;5033206;28;20492;-77
2021/10/08 10:41:18;;;;;;;27.90;14.93;;;16.40;83.20;;;;;;5033160;28;20104;-77
2021/10/08 10:43:51;;;;;;;24.35;15.27;;;16.40;82.90;;;;;;5032677;28;20427;-77
2021/10/08 10:52:01;;;;;;;29.23;14.70;;;16.60;82.20;;;;;;5033074;28;20030;-77
2021/10/08 10:57:06;;;;;;;23.33;13.45;;;16.70;80.00;;;;;;5032727;28;20253;-77
2021/10/08 10:59:36;;;;;;;22.63;12.77;;;16.70;79.80;;;;;;5031172;28;20045;-77
2021/10/08 11:02:08;;;;;;;19.77;13.05;;;16.70;79.80;;;;;;5014536;28;20121;-77
2021/10/08 11:04:49;;;;;;;24.27;12.57;;;16.80;79.50;;;;;;5046897;28;20457;-77
2021/10/08 11:07:23;;;;;;;23.83;13.13;;;16.80;79.10;;;;;;5030901;28;20033;-77
2021/10/08 11:10:05;;;;;;;25.60;13.55;;;16.90;80.10;;;;;;5030850;28;20098;-77
2021/10/08 11:12:42;;;;;;;23.05;12.48;;;17.10;79.10;;;;;;5031274;28;20022;-77
2021/10/08 11:17:55;;;;;;;22.25;13.48;;;17.10;78.80;;;;;;5031245;28;20424;-77
2021/10/08 11:20:30;;;;;;;20.75;11.68;;;17.20;78.30;;;;;;5013532;28;20631;-77
2021/10/08 11:22:58;;;;;;;17.50;9.65;;;17.30;78.40;;;;;;5047311;28;20381;-77
2021/10/08 11:25:25;;;;;;;17.00;8.80;;;17.40;78.00;;;;;;5030641;28;20057;-77
2021/10/08 11:27:51;;;;;;;12.40;7.72;;;17.50;76.50;;;;;;5031947;28;20025;-77
2021/10/08 11:30:18;;;;;;;11.20;7.90;;;17.60;75.10;;;;;;5031586;28;20049;-77
2021/10/08 11:32:45;;;;;;;14.57;7.45;;;17.60;75.40;;;;;;5046961;28;20540;-77
2021/10/08 11:35:14;;;;;;;15.20;7.78;;;17.60;74.20;;;;;;5047164;28;20036;-77
2021/10/08 11:37:46;;;;;;;11.13;7.97;;;17.70;73.50;;;;;;5046624;28;20033;-77
2021/10/08 11:40:15;;;;;;;11.32;7.60;;;17.60;72.30;;;;;;5029336;28;20040;-77
2021/10/08 11:42:56;;;;;;;13.95;6.70;;;17.60;73.80;;;;;;5031230;28;20104;-77
2021/10/08 11:45:37;;;;;;;8.93;5.85;;;17.60;74.60;;;;;;5031745;28;20021;-77
2021/10/08 11:48:12;;;;;;;6.70;4.72;;;17.70;73.70;;;;;;5030073;28;20061;-77
2021/10/08 11:53:04;;;;;;;5.70;4.47;;;17.90;72.90;;;;;;5031873;28;20087;-77
2021/10/08 11:55:49;;;;;;;8.73;5.38;;;17.90;72.10;;;;;;5047149;28;20029;-77
2021/10/08 11:58:21;;;;;;;6.97;5.03;;;18.00;71.50;;;;;;5031874;28;20490;-77
2021/10/08 12:00:48;;;;;;;7.90;5.45;;;18.00;72.20;;;;;;5030437;28;20034;-77
2021/10/08 12:03:19;;;;;;;7.72;5.35;;;18.00;72.30;;;;;;5014195;28;20083;-77
2021/10/08 12:05:56;;;;;;;8.27;4.90;;;18.00;72.00;;;;;;5013992;28;20025;-77
2021/10/08 12:08:35;;;;;;;5.63;4.57;;;17.80;72.70;;;;;;5031827;28;20029;-77
2021/10/08 12:11:08;;;;;;;4.95;4.45;;;17.90;72.40;;;;;;5029672;28;20058;-77
2021/10/08 12:13:48;;;;;;;6.07;4.03;;;18.00;72.30;;;;;;5031260;28;20059;-77
2021/10/08 12:16:23;;;;;;;7.05;4.55;;;18.10;71.20;;;;;;5030223;28;20032;-77
2021/10/08 12:18:52;;;;;;;8.48;4.07;;;18.10;70.00;;;;;;5011672;28;20109;-77
2021/10/08 12:21:21;;;;;;;5.78;3.50;;;18.10;70.50;;;;;;5012211;28;20108;-77
2021/10/08 12:23:57;;;;;;;4.32;3.40;;;18.20;70.90;;;;;;5030578;28;20026;-77
2021/10/08 12:26:24;;;;;;;5.65;3.65;;;18.20;71.50;;;;;;5045798;28;20618;-77
2021/10/08 12:28:52;;;;;;;7.60;4.55;;;18.30;71.30;;;;;;5029329;28;20061;-77
2021/10/08 12:31:20;;;;;;;5.63;3.97;;;18.30;71.70;;;;;;5012925;28;20553;-77
2021/10/08 12:33:48;;;;;;;6.97;3.92;;;18.40;70.70;;;;;;5030114;28;20048;-77
2021/10/08 12:36:22;;;;;;;6.85;4.57;;;18.30;70.10;;;;;;5029826;28;20037;-77
2021/10/08 12:38:51;;;;;;;7.47;4.93;;;18.30;69.80;;;;;;5031574;28;20079;-77
2021/10/08 12:41:39;;;;;;;8.07;4.72;;;18.30;70.90;;;;;;5029752;28;20030;-77
2021/10/08 12:44:14;;;;;;;7.75;4.85;;;18.30;71.10;;;;;;5031105;28;20025;-77
2021/10/08 12:46:43;;;;;;;9.10;4.65;;;18.40;71.20;;;;;;5013477;28;20485;-78
2021/10/08 12:49:11;;;;;;;8.23;5.15;;;18.40;71.10;;;;;;5013501;28;20032;-77
2021/10/08 12:51:49;;;;;;;6.78;5.28;;;18.40;71.30;;;;;;5045798;28;20033;-77
2021/10/08 12:54:18;;;;;;;7.13;5.30;;;18.50;71.10;;;;;;5030851;28;20108;-77